Time;durP1;ratioP1;P1;durP2;ratioP2;P2;SDS_P1;SDS_P2;PMS_P1;PMS_P2;Temp;Humidity;BMP_temperature;BMP_pressure;BME280_temperature;BME280_humidity;BME280_pressure;Samples;Min_cycle;Max_cycle;Signal;HPM_P1;HPM_P2
2022/05/21 00:01:33;;;;;;;2.70;2.50;;;;;;;19.12;81.65;97113.13;5012029;28;20199;-69
2022/05/21 00:03:58;;;;;;;4.57;3.15;;;;;;;19.05;82.08;97116.09;5011718;28;20191;-69
2022/05/21 00:06:24;;;;;;;3.30;3.00;;;;;;;19.00;81.69;97112.66;5012288;28;20222;-70
2022/05/21 00:08:49;;;;;;;3.05;2.72;;;;;;;18.87;82.19;97113.25;5012653;28;20187;-70
2022/05/21 00:11:14;;;;;;;3.08;2.75;;;;;;;18.98;80.61;97112.94;5012724;28;20258;-69
2022/05/21 00:13:40;;;;;;;3.17;2.83;;;;;;;18.83;81.30;97115.66;5004136;28;20235;-70
2022/05/21 00:16:05;;;;;;;3.08;2.85;;;;;;;18.95;80.42;97123.28;5012167;28;20191;-69
2022/05/21 00:18:31;;;;;;;3.38;2.80;;;;;;;19.00;80.13;97120.66;5011999;28;20253;-70
2022/05/21 00:20:56;;;;;;;4.00;3.00;;;;;;;18.80;79.97;97126.81;5016699;28;20188;-69
2022/05/21 00:23:28;;;;;;;3.10;2.80;;;;;;;18.60;80.32;97130.31;5007205;28;20179;-69
2022/05/21 00:26:10;;;;;;;4.13;2.65;;;;;;;18.61;80.56;97131.88;5012259;28;20192;-69
2022/05/21 00:28:38;;;;;;;2.80;2.60;;;;;;;18.80;79.31;97129.47;5011877;28;20225;-70
2022/05/21 00:31:05;;;;;;;2.58;2.42;;;;;;;18.53;80.24;97132.41;4994656;28;20652;-70
2022/05/21 00:33:31;;;;;;;3.28;2.97;;;;;;;18.63;79.46;97137.75;5011742;28;20389;-70
2022/05/21 00:35:57;;;;;;;3.58;2.60;;;;;;;18.71;78.73;97140.91;5015709;28;20660;-70
2022/05/21 00:38:24;;;;;;;2.88;2.67;;;;;;;18.62;79.03;97140.66;5015727;28;20640;-70
2022/05/21 00:40:50;;;;;;;4.00;2.65;;;;;;;18.34;79.83;97141.19;5015414;28;20191;-70
2022/05/21 00:43:36;;;;;;;2.92;2.63;;;;;;;18.45;79.41;97142.78;5015626;28;20521;-70
2022/05/21 00:46:08;;;;;;;2.90;2.70;;;;;;;18.35;80.20;97142.78;5015785;28;20210;-70
2022/05/21 00:48:35;;;;;;;4.57;2.38;;;;;;;18.27;80.92;97147.59;5015341;28;20187;-71
2022/05/21 00:51:01;;;;;;;5.03;2.67;;;;;;;18.41;80.24;97141.72;5015107;28;20265;-70
2022/05/21 00:53:28;;;;;;;2.88;2.67;;;;;;;18.16;80.72;97147.84;5015153;28;20211;-70
2022/05/21 00:55:54;;;;;;;2.60;2.40;;;;;;;18.31;80.58;97155.00;5015382;28;20203;-70
2022/05/21 01:01:12;;;;;;;3.20;2.90;;;;;;;18.00;81.23;97152.34;5015343;28;20553;-70
2022/05/21 01:03:38;;;;;;;2.95;2.70;;;;;;;17.97;81.03;97154.72;5014939;28;20234;-70
2022/05/21 01:06:03;;;;;;;3.22;2.80;;;;;;;17.79;82.08;97156.03;5015057;28;20555;-71
2022/05/21 01:08:29;;;;;;;3.92;2.50;;;;;;;17.81;81.31;97157.38;5014679;28;20183;-70
2022/05/21 01:11:02;;;;;;;2.33;2.22;;;;;;;18.00;80.41;97168.25;5015109;28;20183;-70
2022/05/21 01:13:33;;;;;;;4.47;2.50;;;;;;;17.90;80.42;97159.50;5004103;28;20210;-70
2022/05/21 01:16:00;;;;;;;2.53;2.28;;;;;;;17.92;79.46;97173.31;5011819;28;20265;-70
2022/05/21 01:18:26;;;;;;;2.60;2.40;;;;;;;17.93;79.61;97166.94;5014987;28;20230;-70
2022/05/21 01:20:59;;;;;;;2.50;2.30;;;;;;;17.47;80.05;97169.47;5014882;28;20179;-70
2022/05/21 01:23:25;;;;;;;2.40;2.30;;;;;;;17.31;80.62;97179.22;5014389;28;20274;-68
2022/05/21 01:25:52;;;;;;;3.77;2.37;;;;;;;17.33;80.33;97178.97;5014840;28;20183;-68
2022/05/21 01:28:21;;;;;;;2.30;2.20;;;;;;;17.17;80.37;97169.34;5013990;28;20199;-70
2022/05/21 01:30:50;;;;;;;2.88;2.58;;;;;;;17.15;80.29;97179.41;5014559;28;20527;-68
2022/05/21 01:33:19;;;;;;;3.53;2.27;;;;;;;17.07;80.86;97180.69;5014365;28;20679;-70
2022/05/21 01:35:46;;;;;;;2.85;2.40;;;;;;;17.02;80.09;97178.81;5014388;28;20209;-68
2022/05/21 01:38:13;;;;;;;2.50;2.30;;;;;;;16.77;80.69;97177.91;5014144;28;20184;-68
2022/05/21 01:40:39;;;;;;;3.20;2.50;;;;;;;16.74;80.98;97186.34;5014371;28;20187;-68
2022/05/21 01:45:52;;;;;;;2.53;2.33;;;;;;;16.91;79.33;97193.06;4986906;28;20179;-69
2022/05/21 01:48:19;;;;;;;3.73;2.30;;;;;;;16.89;79.52;97195.16;5029152;28;20558;-69
2022/05/21 01:50:45;;;;;;;2.53;2.30;;;;;;;16.91;79.28;97197.56;5014443;28;20187;-69
2022/05/21 01:53:11;;;;;;;2.97;2.67;;;;;;;16.87;79.43;97193.84;4996366;28;20207;-69
2022/05/21 01:55:38;;;;;;;2.97;2.47;;;;;;;16.61;81.17;97201.59;5014247;28;20648;-69
2022/05/21 01:58:03;;;;;;;2.33;2.13;;;;;;;16.65;80.89;97206.41;5014006;28;20188;-69
2022/05/21 02:00:28;;;;;;;2.63;2.43;;;;;;;16.63;81.30;97204.81;5014201;28;20520;-69
2022/05/21 02:02:54;;;;;;;3.73;2.60;;;;;;;16.68;81.39;97211.19;5013877;28;20197;-70
2022/05/21 02:05:19;;;;;;;4.17;2.63;;;;;;;16.67;81.65;97215.66;5013444;28;20191;-69
2022/05/21 02:07:45;;;;;;;2.77;2.60;;;;;;;16.63;82.21;97212.75;5014136;28;20215;-69
2022/05/21 02:10:10;;;;;;;2.97;2.73;;;;;;;16.53;82.99;97211.84;5014039;28;20690;-69
2022/05/21 02:12:36;;;;;;;2.87;2.67;;;;;;;16.55;82.98;97212.41;5006058;28;20270;-69
2022/05/21 02:15:01;;;;;;;4.00;2.87;;;;;;;16.33;84.70;97214.34;5011054;28;20226;-70
2022/05/21 02:17:27;;;;;;;3.27;2.93;;;;;;;16.28;85.42;97222.22;5013253;28;20652;-69
2022/05/21 02:19:52;;;;;;;3.10;2.80;;;;;;;16.39;84.95;97219.41;5013622;28;20187;-69
2022/05/21 02:22:17;;;;;;;2.73;2.53;;;;;;;16.22;85.89;97221.38;5013732;28;20262;-70
2022/05/21 02:24:43;;;;;;;3.27;3.00;;;;;;;16.28;85.67;97222.22;5013704;28;20669;-69
2022/05/21 02:27:10;;;;;;;3.00;2.80;;;;;;;16.02;85.88;97229.94;5013099;28;20330;-69
2022/05/21 02:29:36;;;;;;;2.57;2.43;;;;;;;16.07;85.88;97229.97;5013444;28;20265;-69
2022/05/21 02:32:02;;;;;;;4.03;3.00;;;;;;;15.99;86.14;97233.09;5013405;28;20594;-70
2022/05/21 02:34:27;;;;;;;7.97;2.70;;;;;;;16.11;85.59;97227.63;5013640;28;20237;-69
2022/05/21 02:39:37;;;;;;;2.93;2.80;;;;;;;15.91;87.77;97238.00;5013386;28;20187;-69
2022/05/21 02:42:03;;;;;;;3.03;2.80;;;;;;;15.92;87.86;97240.41;5013692;28;20200;-69
2022/05/21 02:44:29;;;;;;;2.93;2.73;;;;;;;15.64;89.69;97238.78;5013379;28;20183;-69
2022/05/21 02:46:55;;;;;;;4.50;3.30;;;;;;;15.71;88.74;97241.25;5013512;28;20191;-70
2022/05/21 02:49:21;;;;;;;3.40;3.10;;;;;;;15.77;87.96;97234.97;4995405;28;20195;-70
2022/05/21 02:51:47;;;;;;;3.60;2.63;;;;;;;15.72;87.79;97240.97;5013047;28;20194;-70
2022/05/21 02:54:14;;;;;;;3.57;3.07;;;;;;;15.72;87.55;97242.81;5013291;28;20220;-69
2022/05/21 02:56:48;;;;;;;3.63;2.90;;;;;;;15.65;87.71;97250.97;5012670;28;20194;-69
2022/05/21 02:59:14;;;;;;;4.37;3.47;;;;;;;15.62;88.64;97255.94;5012799;28;20956;-69
2022/05/21 03:01:40;;;;;;;3.67;3.37;;;;;;;15.68;88.29;97253.09;5013309;28;20206;-70
2022/05/21 03:04:07;;;;;;;3.70;3.40;;;;;;;15.21;90.73;97255.38;5013278;28;20193;-70
2022/05/21 03:06:34;;;;;;;5.20;4.07;;;;;;;15.20;90.97;97264.38;5012848;28;20183;-70
2022/05/21 03:11:43;;;;;;;3.40;3.20;;;;;;;15.23;90.14;97268.34;5008560;28;20699;-69
2022/05/21 03:14:08;;;;;;;3.93;3.73;;;;;;;15.07;90.89;97267.34;5001458;28;20203;-71
2022/05/21 03:16:34;;;;;;;3.67;3.47;;;;;;;14.82;92.03;97267.00;5012711;28;20222;-70
2022/05/21 03:18:59;;;;;;;4.13;3.77;;;;;;;14.80;92.38;97261.16;5013109;28;20382;-69
2022/05/21 03:21:24;;;;;;;4.50;4.10;;;;;;;14.84;92.02;97268.34;5012757;28;20226;-69
2022/05/21 03:23:50;;;;;;;3.80;3.50;;;;;;;14.92;91.19;97261.88;5012921;28;20199;-70
2022/05/21 03:26:15;;;;;;;4.27;3.83;;;;;;;14.89;91.12;97270.25;5012854;28;20206;-70
2022/05/21 03:28:40;;;;;;;3.60;3.33;;;;;;;14.85;91.89;97267.31;5012503;28;20274;-70
2022/05/21 03:31:06;;;;;;;5.27;3.83;;;;;;;14.91;91.46;97265.53;5012494;28;20242;-70
2022/05/21 03:33:31;;;;;;;3.60;3.30;;;;;;;14.79;92.31;97275.38;5012820;28;20703;-69
2022/05/21 03:35:56;;;;;;;4.30;2.87;;;;;;;14.95;91.21;97271.91;5012926;28;20179;-69
2022/05/21 03:38:22;;;;;;;4.37;3.70;;;;;;;14.77;91.37;97272.16;5012579;28;20194;-70
2022/05/21 03:40:47;;;;;;;3.80;3.37;;;;;;;15.03;89.57;97273.38;5012504;28;20179;-70
2022/05/21 03:43:13;;;;;;;3.87;3.30;;;;;;;14.80;89.86;97267.22;5012776;28;20258;-70
2022/05/21 03:45:39;;;;;;;4.67;3.70;;;;;;;14.85;89.96;97274.41;5012654;28;20347;-70
2022/05/21 03:48:05;;;;;;;3.33;3.10;;;;;;;14.78;90.09;97276.41;5012904;28;20188;-70
2022/05/21 03:50:32;;;;;;;3.90;3.60;;;;;;;14.88;89.68;97279.19;5012705;28;20195;-69
2022/05/21 03:52:58;;;;;;;3.70;3.00;;;;;;;14.77;90.07;97286.16;5012518;28;20199;-70
2022/05/21 03:55:24;;;;;;;3.50;3.20;;;;;;;14.75;89.65;97284.81;5012677;28;20175;-70
2022/05/21 03:57:49;;;;;;;4.20;3.30;;;;;;;14.86;89.10;97294.50;5012561;28;20186;-70
2022/05/21 04:00:18;;;;;;;3.70;3.33;;;;;;;15.24;86.77;97293.72;5012350;28;20191;-70
2022/05/21 04:02:44;;;;;;;4.00;3.20;;;;;;;15.16;86.34;97296.75;5012339;28;20187;-69
2022/05/21 04:05:11;;;;;;;3.50;3.20;;;;;;;15.28;85.71;97300.91;5019907;28;20291;-69
2022/05/21 04:07:37;;;;;;;3.37;3.13;;;;;;;15.38;85.14;97302.88;5012609;28;20183;-69
2022/05/21 04:10:03;;;;;;;3.23;2.93;;;;;;;15.31;85.34;97307.56;5015914;28;20696;-70
2022/05/21 04:12:29;;;;;;;3.17;2.97;;;;;;;15.46;84.34;97305.13;5002394;28;20653;-70
2022/05/21 04:14:54;;;;;;;3.00;2.73;;;;;;;15.77;82.46;97296.53;5012355;28;20314;-70
2022/05/21 04:17:19;;;;;;;2.77;2.57;;;;;;;15.79;81.56;97304.22;5015496;28;20241;-69
2022/05/21 04:19:45;;;;;;;4.90;2.93;;;;;;;15.80;81.38;97306.63;5015607;28;20235;-69
2022/05/21 04:22:10;;;;;;;3.00;2.57;;;;;;;15.59;81.59;97301.34;5016136;28;20265;-69
2022/05/21 04:24:36;;;;;;;3.80;2.67;;;;;;;15.58;80.17;97302.41;5015993;28;20191;-69
2022/05/21 04:27:02;;;;;;;3.07;2.87;;;;;;;15.49;80.60;97309.91;5015688;28;20199;-69
2022/05/21 04:29:27;;;;;;;3.87;2.47;;;;;;;15.56;79.62;97307.13;4983539;28;20636;-70
2022/05/21 04:31:53;;;;;;;3.17;2.93;;;;;;;15.57;78.68;97304.22;5015990;28;20183;-69
2022/05/21 04:34:18;;;;;;;3.07;2.83;;;;;;;15.69;76.83;97312.84;5015804;28;20209;-69
2022/05/21 04:36:43;;;;;;;2.50;2.40;;;;;;;15.78;75.34;97307.91;5015319;28;20607;-69
2022/05/21 04:39:09;;;;;;;3.10;2.90;;;;;;;15.82;74.58;97310.88;5015710;28;20271;-69
2022/05/21 04:41:35;;;;;;;2.50;2.30;;;;;;;15.83;74.43;97307.19;5015461;28;20506;-69
2022/05/21 04:44:02;;;;;;;4.67;2.30;;;;;;;15.73;74.60;97316.59;5015359;28;20285;-69
2022/05/21 04:46:29;;;;;;;2.30;2.10;;;;;;;16.26;71.92;97307.13;5015813;28;20191;-69
2022/05/21 04:48:55;;;;;;;2.27;2.10;;;;;;;16.40;71.54;97310.16;5015839;28;20191;-69
2022/05/21 04:51:20;;;;;;;3.57;2.17;;;;;;;16.41;71.25;97309.94;4997887;28;20187;-69
2022/05/21 04:53:46;;;;;;;1.90;1.80;;;;;;;16.66;70.49;97309.41;5015567;28;20242;-69
2022/05/21 04:56:12;;;;;;;2.10;2.00;;;;;;;16.51;69.84;97315.31;5015396;28;20194;-70
2022/05/21 04:58:37;;;;;;;2.10;2.00;;;;;;;17.06;68.29;97314.19;5015321;28;20184;-70
2022/05/21 05:01:04;;;;;;;2.85;1.70;;;;;;;17.12;67.38;97313.16;5015185;28;20289;-68
2022/05/21 05:03:30;;;;;;;1.92;1.83;;;;;;;17.05;67.47;97318.69;5014787;28;20198;-69
2022/05/21 05:05:55;;;;;;;2.58;1.98;;;;;;;17.25;66.50;97320.69;5014971;28;20262;-69
2022/05/21 05:08:22;;;;;;;2.67;1.67;;;;;;;17.33;65.29;97314.09;5015071;28;20190;-69
2022/05/21 05:10:48;;;;;;;3.30;2.00;;;;;;;17.38;65.35;97314.94;4992358;28;20219;-70
2022/05/21 05:13:15;;;;;;;2.50;1.92;;;;;;;17.79;63.33;97312.50;5010173;28;20195;-69
2022/05/21 05:15:46;;;;;;;2.05;1.67;;;;;;;17.51;63.68;97308.34;5029970;28;20694;-69
2022/05/21 05:18:23;;;;;;;2.25;2.00;;;;;;;17.47;63.06;97307.28;5014944;28;20694;-69
2022/05/21 05:20:49;;;;;;;1.73;1.63;;;;;;;17.74;62.62;97312.47;5014187;28;20666;-68
2022/05/21 05:23:15;;;;;;;2.15;2.00;;;;;;;17.45;61.90;97314.69;5014409;28;20270;-70
2022/05/21 05:25:41;;;;;;;2.20;2.00;;;;;;;17.83;61.28;97311.72;5014792;28;20195;-69
2022/05/21 05:28:19;;;;;;;2.65;2.00;;;;;;;17.68;61.33;97318.81;5014538;28;20270;-69
2022/05/21 05:30:47;;;;;;;2.05;1.85;;;;;;;18.11;59.94;97317.66;4996818;28;20191;-70
2022/05/21 05:33:13;;;;;;;2.00;1.90;;;;;;;18.28;59.28;97316.34;5014277;28;20199;-69
2022/05/21 05:35:39;;;;;;;2.15;1.70;;;;;;;18.44;58.70;97319.84;5014668;28;20183;-69
2022/05/21 05:38:06;;;;;;;2.72;1.60;;;;;;;18.35;58.07;97313.44;5014501;28;20188;-69
2022/05/21 05:40:33;;;;;;;1.95;1.85;;;;;;;18.15;59.01;97313.41;5014255;28;20187;-69
2022/05/21 05:43:00;;;;;;;1.98;1.88;;;;;;;18.38;57.63;97312.94;5014241;28;20184;-71
2022/05/21 05:45:26;;;;;;;1.75;1.65;;;;;;;18.21;56.99;97307.06;5014209;28;20194;-69
2022/05/21 05:47:51;;;;;;;2.58;2.13;;;;;;;18.29;57.25;97319.81;5013943;28;20187;-69
2022/05/21 05:50:17;;;;;;;4.32;1.83;;;;;;;18.40;56.68;97315.31;5014486;28;20237;-69
2022/05/21 05:52:43;;;;;;;1.95;1.85;;;;;;;18.69;56.24;97316.44;5014000;28;20203;-70
2022/05/21 05:55:09;;;;;;;2.60;1.77;;;;;;;18.67;56.00;97321.22;5013855;28;20187;-69
2022/05/21 05:57:34;;;;;;;1.92;1.65;;;;;;;19.02;54.37;97315.91;5013991;28;20183;-70
2022/05/21 06:00:00;;;;;;;1.80;1.70;;;;;;;19.04;53.65;97323.63;5013927;28;20263;-69
2022/05/21 06:05:16;;;;;;;1.20;1.20;;;;;;;19.39;50.94;97326.22;5013930;28;20596;-70
2022/05/21 06:07:51;;;;;;;1.83;1.25;;;;;;;19.66;51.06;97323.25;5013849;28;20237;-70
2022/05/21 06:10:24;;;;;;;2.60;1.20;;;;;;;19.83;49.90;97317.63;5008947;28;20263;-70
2022/05/21 06:12:49;;;;;;;1.38;0.93;;;;;;;19.88;48.40;97328.25;5011966;28;20265;-70
2022/05/21 06:15:15;;;;;;;1.33;1.00;;;;;;;19.29;47.64;97328.88;5013970;28;20195;-69
2022/05/21 06:17:41;;;;;;;0.88;0.88;;;;;;;19.48;46.59;97331.81;5013686;28;20202;-70
2022/05/21 06:20:10;;;;;;;1.70;1.05;;;;;;;19.65;46.19;97334.97;5028120;28;20242;-70
2022/05/21 06:22:36;;;;;;;1.10;1.00;;;;;;;19.69;46.87;97341.31;5013274;28;20270;-70
2022/05/21 06:25:01;;;;;;;2.33;0.93;;;;;;;19.03;49.28;97337.97;5013630;28;20211;-70
2022/05/21 06:27:27;;;;;;;1.20;1.20;;;;;;;19.57;49.19;97340.03;5013641;28;20192;-72
2022/05/21 06:29:53;;;;;;;1.70;1.00;;;;;;;19.90;48.91;97340.19;5029532;28;20196;-71
2022/05/21 06:32:18;;;;;;;2.15;1.10;;;;;;;19.77;50.14;97343.44;5013287;28;20222;-70
2022/05/21 06:34:45;;;;;;;1.15;1.05;;;;;;;20.18;47.96;97341.38;5013865;28;20195;-71
2022/05/21 06:37:12;;;;;;;2.63;0.90;;;;;;;20.30;47.11;97333.88;5008674;28;20558;-72
2022/05/21 06:39:39;;;;;;;1.40;0.85;;;;;;;19.65;48.48;97345.59;4999207;28;20614;-72
2022/05/21 06:42:05;;;;;;;3.05;1.00;;;;;;;19.51;49.72;97349.88;5006755;28;20187;-72
2022/05/21 06:44:30;;;;;;;1.25;0.95;;;;;;;18.91;49.64;97332.91;5012060;28;20199;-72
2022/05/21 06:46:56;;;;;;;2.05;0.90;;;;;;;19.24;51.47;97342.19;5013324;28;20183;-71
2022/05/21 06:49:23;;;;;;;3.03;0.82;;;;;;;20.50;48.24;97338.34;5013171;28;20330;-68
2022/05/21 06:51:55;;;;;;;1.73;1.05;;;;;;;20.76;48.29;97336.28;5012913;28;20202;-69
2022/05/21 06:54:22;;;;;;;0.70;0.70;;;;;;;21.26;46.91;97337.75;5012692;28;20607;-69
2022/05/21 06:56:47;;;;;;;1.17;0.73;;;;;;;20.79;46.75;97341.03;5013185;28;20175;-69
2022/05/21 06:59:13;;;;;;;0.95;0.68;;;;;;;20.61;45.80;97337.19;5013004;28;20655;-68
2022/05/21 07:01:40;;;;;;;0.82;0.82;;;;;;;19.77;48.07;97351.44;5012991;28;20195;-68
2022/05/21 07:04:05;;;;;;;2.40;0.80;;;;;;;20.30;46.62;97344.53;5012770;28;20183;-69
2022/05/21 07:09:14;;;;;;;2.15;0.93;;;;;;;20.47;46.42;97349.53;5012874;28;20199;-68
2022/05/21 07:11:40;;;;;;;1.58;0.90;;;;;;;20.55;45.60;97354.28;5008730;28;20203;-68
2022/05/21 07:14:05;;;;;;;2.78;0.90;;;;;;;21.10;44.38;97352.25;5012551;28;20301;-68
2022/05/21 07:16:31;;;;;;;5.15;0.98;;;;;;;20.70;44.91;97350.72;5013202;28;20179;-72
2022/05/21 07:18:56;;;;;;;1.02;0.95;;;;;;;20.68;45.36;97360.84;5012097;28;20226;-69
2022/05/21 07:21:22;;;;;;;2.13;0.80;;;;;;;20.77;45.99;97364.50;5012570;28;20730;-69
2022/05/21 07:23:48;;;;;;;3.40;1.00;;;;;;;21.06;45.46;97368.03;4994969;28;20633;-69
2022/05/21 07:26:15;;;;;;;1.35;1.10;;;;;;;20.99;46.10;97353.41;5012730;28;20221;-72
2022/05/21 07:28:40;;;;;;;0.90;0.90;;;;;;;20.64;47.62;97351.81;5012418;28;20564;-69
2022/05/21 07:31:06;;;;;;;0.80;0.80;;;;;;;21.13;46.27;97341.03;5012890;28;20187;-70
2022/05/21 07:33:31;;;;;;;1.38;0.95;;;;;;;21.10;46.22;97341.59;5012250;28;20756;-69
2022/05/21 07:35:57;;;;;;;1.45;1.00;;;;;;;21.19;44.84;97336.47;5012010;28;20191;-69
2022/05/21 07:38:23;;;;;;;0.95;0.90;;;;;;;20.04;47.38;97335.09;5012256;28;20543;-69
2022/05/21 07:40:50;;;;;;;1.00;0.90;;;;;;;20.11;48.32;97329.47;5012419;28;20254;-69
2022/05/21 07:43:18;;;;;;;2.10;1.05;;;;;;;19.85;47.50;97334.09;5013285;28;20559;-70
2022/05/21 07:45:45;;;;;;;0.80;0.80;;;;;;;20.48;45.91;97331.69;5016461;28;20187;-70
2022/05/21 07:48:14;;;;;;;0.70;0.65;;;;;;;20.72;45.55;97322.72;5016138;28;20190;-71
2022/05/21 07:50:44;;;;;;;0.63;0.63;;;;;;;20.47;46.26;97324.75;5016319;28;20331;-69
2022/05/21 07:53:20;;;;;;;0.82;0.82;;;;;;;20.42;45.30;97320.25;5031734;28;20207;-73
2022/05/21 07:55:51;;;;;;;2.08;1.00;;;;;;;19.32;47.56;97335.53;5016236;28;20187;-69
2022/05/21 07:58:16;;;;;;;0.90;0.90;;;;;;;19.83;47.36;97337.03;5016298;28;20175;-70
2022/05/21 08:00:42;;;;;;;1.98;0.80;;;;;;;20.50;46.75;97341.00;5015764;28;20545;-68
2022/05/21 08:03:08;;;;;;;1.10;0.80;;;;;;;20.57;45.93;97341.47;5016289;28;20231;-68
2022/05/21 08:05:35;;;;;;;1.65;0.75;;;;;;;20.74;45.91;97331.22;5015726;28;20644;-68
2022/05/21 08:08:01;;;;;;;0.82;0.70;;;;;;;19.81;46.09;97335.72;5015308;28;20266;-66
2022/05/21 08:10:27;;;;;;;0.90;0.80;;;;;;;20.32;46.06;97337.09;5007194;28;20278;-66
2022/05/21 08:12:52;;;;;;;1.70;0.90;;;;;;;20.50;45.59;97335.66;5016021;28;20294;-69
2022/05/21 08:15:19;;;;;;;0.88;0.70;;;;;;;19.83;46.40;97331.72;5016025;28;20620;-72
2022/05/21 08:17:44;;;;;;;0.73;0.73;;;;;;;19.47;47.96;97332.88;5015690;28;20270;-68
2022/05/21 08:20:11;;;;;;;1.23;0.70;;;;;;;19.52;46.34;97336.31;4998235;28;20279;-65
2022/05/21 08:28:07;;;;;;;1.05;0.80;;;;;;;20.03;46.13;97349.44;5015276;28;20175;-70
2022/05/21 08:30:32;;;;;;;0.70;0.70;;;;;;;19.89;46.29;97345.78;5015835;28;20183;-70
2022/05/21 08:33:05;;;;;;;1.13;0.60;;;;;;;20.00;46.32;97338.56;5015788;28;20207;-68
2022/05/21 08:35:31;;;;;;;0.50;0.50;;;;;;;20.52;45.53;97327.38;5015677;28;20199;-72
2022/05/21 08:37:57;;;;;;;0.70;0.70;;;;;;;20.64;44.74;97331.28;5015632;28;20637;-70
2022/05/21 08:40:33;;;;;;;0.50;0.50;;;;;;;20.08;45.57;97349.44;5015806;28;20191;-70
2022/05/21 08:42:58;;;;;;;0.50;0.50;;;;;;;19.65;46.78;97334.97;5015957;28;20639;-68
2022/05/21 08:45:58;;;;;;;0.68;0.68;;;;;;;19.64;47.56;97336.03;5015615;28;20183;-69
2022/05/21 08:48:27;;;;;;;0.65;0.65;;;;;;;20.57;45.86;97330.00;5015073;28;20699;-70
2022/05/21 08:50:54;;;;;;;0.52;0.52;;;;;;;20.59;44.78;97333.19;5003373;28;20220;-69
2022/05/21 08:53:23;;;;;;;0.98;0.60;;;;;;;20.25;45.89;97320.59;4994984;28;20246;-69
2022/05/21 08:55:52;;;;;;;1.58;0.60;;;;;;;20.86;44.47;97335.41;4993181;28;20231;-69
2022/05/21 08:58:29;;;;;;;1.98;0.80;;;;;;;20.59;44.43;97333.19;4995384;28;20645;-70
2022/05/21 09:00:55;;;;;;;0.80;0.80;;;;;;;21.02;43.68;97332.31;5006589;28;20246;-70
2022/05/21 09:03:23;;;;;;;0.93;0.70;;;;;;;21.14;43.02;97326.63;4996007;28;20244;-69
2022/05/21 09:06:18;;;;;;;0.77;0.77;;;;;;;20.93;44.38;97327.88;5014364;28;20183;-69
2022/05/21 09:09:20;;;;;;;4.20;0.70;;;;;;;21.10;44.13;97323.75;5011295;28;20188;-70
2022/05/21 09:11:50;;;;;;;1.67;1.00;;;;;;;19.93;46.60;97325.56;5013887;28;20183;-69
2022/05/21 09:14:27;;;;;;;3.35;0.80;;;;;;;20.52;46.36;97322.84;5014159;28;20217;-70
2022/05/21 09:16:54;;;;;;;1.33;0.80;;;;;;;20.72;44.74;97319.25;5014517;28;20780;-69
2022/05/21 09:19:21;;;;;;;0.65;0.65;;;;;;;20.53;45.27;97318.31;5014502;28;20227;-68
2022/05/21 09:21:48;;;;;;;0.60;0.60;;;;;;;20.85;43.38;97320.47;5001232;28;20321;-69
2022/05/21 09:24:44;;;;;;;1.65;0.80;;;;;;;21.13;43.59;97314.38;5013846;28;20202;-69
2022/05/21 09:27:38;;;;;;;2.42;0.82;;;;;;;21.27;43.60;97311.88;5007172;28;20203;-69
2022/05/21 09:30:19;;;;;;;4.30;1.00;;;;;;;21.64;42.52;97306.66;5013941;28;20175;-72
2022/05/21 09:32:49;;;;;;;2.38;0.80;;;;;;;21.82;42.13;97305.94;4996161;28;20234;-70
2022/05/21 09:35:17;;;;;;;0.80;0.80;;;;;;;21.91;41.74;97296.19;5014423;28;20195;-70
2022/05/21 09:37:44;;;;;;;2.22;1.38;;;;;;;22.35;41.68;97295.09;5013826;28;20183;-70
2022/05/21 09:40:22;;;;;;;4.68;2.17;;;;;;;21.63;42.74;97296.28;5013498;28;20194;-69
2022/05/21 09:45:34;;;;;;;2.63;1.27;;;;;;;21.25;45.23;97304.16;5013968;28;20599;-70
2022/05/21 09:48:06;;;;;;;0.90;0.90;;;;;;;20.66;44.95;97299.06;5014181;28;20199;-69
2022/05/21 09:50:53;;;;;;;0.80;0.80;;;;;;;20.17;46.71;97294.53;4996614;28;20718;-69
2022/05/21 09:53:37;;;;;;;2.65;0.90;;;;;;;19.99;46.97;97289.06;5013901;28;20203;-69
2022/05/21 09:56:22;;;;;;;0.95;0.80;;;;;;;20.02;47.17;97293.84;4997297;28;20191;-76
2022/05/21 09:58:50;;;;;;;0.70;0.70;;;;;;;20.07;47.58;97289.28;5008595;28;20229;-70
2022/05/21 10:01:35;;;;;;;2.20;0.88;;;;;;;19.33;48.60;97292.75;5013567;28;20290;-69
2022/05/21 10:04:12;;;;;;;0.73;0.73;;;;;;;19.55;48.90;97292.44;5013164;28;20506;-70
2022/05/21 10:06:43;;;;;;;0.80;0.80;;;;;;;19.66;48.84;97290.56;5013472;28;20218;-70
2022/05/21 10:12:32;;;;;;;3.45;0.75;;;;;;;19.34;50.28;97289.00;5013877;28;20186;-71
2022/05/21 10:15:06;;;;;;;1.42;1.00;;;;;;;19.67;50.66;97295.56;5013635;28;20191;-70
2022/05/21 10:17:36;;;;;;;1.02;0.88;;;;;;;20.29;49.23;97289.69;5013257;28;20287;-70
2022/05/21 10:20:23;;;;;;;2.30;1.30;;;;;;;20.05;49.25;97291.44;5013617;28;20188;-70
2022/05/21 10:23:19;;;;;;;0.80;0.80;;;;;;;19.85;48.60;97289.66;5013612;28;20198;-71
2022/05/21 10:26:37;;;;;;;2.13;1.08;;;;;;;19.67;48.92;97284.94;4998874;28;20176;-69
2022/05/21 10:29:25;;;;;;;1.10;1.10;;;;;;;19.73;49.32;97291.84;4981306;28;20215;-71
2022/05/21 10:32:05;;;;;;;0.88;0.80;;;;;;;20.26;49.23;97276.94;4990040;28;20195;-69
2022/05/21 10:34:53;;;;;;;1.00;1.00;;;;;;;20.38;49.23;97271.28;5013215;28;20203;-70
2022/05/21 10:37:40;;;;;;;5.97;0.90;;;;;;;20.22;48.19;97270.56;5013319;28;20214;-71
2022/05/21 10:40:16;;;;;;;0.80;0.80;;;;;;;20.32;47.81;97267.06;4998559;28;20616;-68
2022/05/21 10:43:19;;;;;;;1.25;0.90;;;;;;;20.59;46.89;97272.72;4999725;28;20270;-68
2022/05/21 10:45:55;;;;;;;2.05;0.80;;;;;;;20.60;46.29;97261.00;5012943;28;20190;-68
2022/05/21 10:48:23;;;;;;;0.80;0.80;;;;;;;20.41;48.43;97261.94;5012963;28;20205;-68
2022/05/21 10:51:00;;;;;;;1.33;0.90;;;;;;;19.69;49.61;97261.53;5012986;28;20707;-68
2022/05/21 10:54:08;;;;;;;1.15;0.80;;;;;;;20.31;49.28;97247.63;5011670;28;20239;-71
2022/05/21 10:56:44;;;;;;;1.45;0.80;;;;;;;20.31;48.45;97244.16;5002668;28;20186;-68
2022/05/21 10:59:42;;;;;;;0.60;0.60;;;;;;;20.50;46.68;97245.13;5013333;28;20175;-68
2022/05/21 11:02:34;;;;;;;6.22;1.48;;;;;;;20.46;47.20;97240.59;5000135;28;20655;-69
2022/05/21 11:05:29;;;;;;;2.92;0.93;;;;;;;21.03;46.58;97235.28;5012464;28;20219;-68
2022/05/21 11:07:59;;;;;;;2.65;0.80;;;;;;;21.18;46.35;97239.69;4982275;28;20266;-69
2022/05/21 11:10:31;;;;;;;1.88;1.00;;;;;;;21.36;46.39;97236.31;4993179;28;20219;-68
2022/05/21 11:13:03;;;;;;;2.35;0.80;;;;;;;21.29;46.35;97245.75;5004832;28;20206;-69
2022/05/21 11:15:52;;;;;;;1.23;1.00;;;;;;;21.05;46.37;97243.00;5012386;28;20691;-68
2022/05/21 11:18:35;;;;;;;0.85;0.82;;;;;;;20.97;46.54;97238.28;5012389;28;20660;-68
2022/05/21 11:21:09;;;;;;;2.13;1.02;;;;;;;20.72;46.88;97240.13;4998538;28;20660;-68
2022/05/21 11:23:54;;;;;;;0.73;0.70;;;;;;;21.01;47.05;97237.44;4988604;28;20194;-67
2022/05/21 11:27:07;;;;;;;2.30;1.00;;;;;;;20.62;48.39;97236.72;4999336;28;20175;-68
2022/05/21 11:29:44;;;;;;;0.98;0.82;;;;;;;20.83;46.73;97227.50;4966568;28;20248;-68
2022/05/21 11:38:03;;;;;;;0.90;0.88;;;;;;;21.32;45.28;97240.63;5011600;28;20543;-68
2022/05/21 11:47:17;;;;;;;1.38;0.90;;;;;;;20.62;47.65;97224.22;4932506;29;20214;-68
2022/05/21 11:49:51;;;;;;;1.40;1.20;;;;;;;20.64;47.20;97234.59;4926137;29;20277;-68
2022/05/21 11:52:26;;;;;;;0.95;0.95;;;;;;;20.65;47.46;97225.53;4932476;29;20201;-68
2022/05/21 11:54:51;;;;;;;1.20;0.90;;;;;;;21.13;47.26;97223.72;4932767;29;20212;-67
2022/05/21 11:57:32;;;;;;;1.88;0.90;;;;;;;21.51;45.14;97225.44;4923941;29;20204;-69
2022/05/21 11:59:59;;;;;;;0.80;0.80;;;;;;;21.04;44.96;97231.56;4930085;29;20197;-69
2022/05/21 12:02:28;;;;;;;0.70;0.70;;;;;;;20.97;46.00;97216.97;4931331;29;20317;-67
2022/05/21 12:04:59;;;;;;;0.90;0.90;;;;;;;21.21;46.21;97212.47;4930919;29;20205;-68
2022/05/21 12:07:43;;;;;;;0.90;0.90;;;;;;;21.32;46.47;97215.81;4931308;29;20235;-68
2022/05/21 12:10:50;;;;;;;1.77;1.00;;;;;;;21.52;46.02;97216.38;4931929;29;20644;-70
2022/05/21 12:13:16;;;;;;;0.90;0.90;;;;;;;21.74;44.70;97215.81;4916043;29;20679;-68
2022/05/21 12:15:53;;;;;;;1.88;1.15;;;;;;;21.38;45.50;97215.47;5000737;28;20661;-70
2022/05/21 12:18:33;;;;;;;1.60;1.17;;;;;;;21.14;44.95;97207.47;5010865;28;20223;-69
2022/05/21 12:20:59;;;;;;;1.88;1.02;;;;;;;21.38;46.53;97214.69;4992775;28;20279;-69
2022/05/21 12:23:35;;;;;;;0.80;0.80;;;;;;;21.77;44.58;97209.91;5011338;28;20187;-68
2022/05/21 12:26:05;;;;;;;1.10;0.88;;;;;;;21.77;44.42;97209.91;5011610;28;20194;-68
2022/05/21 12:28:33;;;;;;;0.80;0.80;;;;;;;21.91;44.06;97205.44;5011016;28;20194;-68